createdAt,value
2023-05-07T00:01:56.914Z,3.88
2023-05-07T00:04:42.756Z,3.70
2023-05-07T00:07:27.902Z,4.05
2023-05-07T00:10:13.909Z,3.72
2023-05-07T00:12:59.147Z,4.53
2023-05-07T00:15:44.462Z,5.13
2023-05-07T00:18:29.835Z,5.40
2023-05-07T00:21:15.249Z,4.70
2023-05-07T00:24:00.797Z,4.18
2023-05-07T00:26:46.337Z,4.32
2023-05-07T00:29:31.660Z,4.28
2023-05-07T00:32:16.976Z,4.20
2023-05-07T00:35:02.336Z,4.82
2023-05-07T00:37:47.694Z,4.78
2023-05-07T00:40:33.118Z,4.93
2023-05-07T00:43:18.505Z,5.70
2023-05-07T00:46:03.949Z,5.55
2023-05-07T00:48:50.686Z,5.60
2023-05-07T00:51:36.032Z,5.32
2023-05-07T00:54:22.642Z,5.20
2023-05-07T00:57:09.147Z,5.00
2023-05-07T00:59:54.336Z,5.53
2023-05-07T01:02:40.761Z,5.32
2023-05-07T01:05:27.091Z,5.90
2023-05-07T01:08:13.514Z,5.80
2023-05-07T01:10:59.028Z,5.50
2023-05-07T01:13:44.635Z,5.22
2023-05-07T01:16:29.970Z,5.47
2023-05-07T01:19:20.950Z,5.95
2023-05-07T01:22:10.169Z,4.70
2023-05-07T01:24:57.075Z,4.93
2023-05-07T01:27:42.208Z,4.90
2023-05-07T01:30:28.516Z,4.53
2023-05-07T01:33:16.946Z,5.05
2023-05-07T01:36:05.105Z,4.93
2023-05-07T01:38:51.013Z,4.50
2023-05-07T01:41:36.560Z,5.00
2023-05-07T01:44:22.733Z,5.28
2023-05-07T01:47:08.421Z,6.15
2023-05-07T01:49:54.119Z,6.10
2023-05-07T01:52:39.779Z,6.40
2023-05-07T01:55:25.170Z,5.53
2023-05-07T01:58:11.690Z,5.85
2023-05-07T02:00:57.036Z,5.78
2023-05-07T02:03:42.419Z,6.40
2023-05-07T02:06:28.277Z,5.72
2023-05-07T02:09:16.033Z,5.90
2023-05-07T02:12:04.491Z,5.53
2023-05-07T02:14:49.666Z,6.15
2023-05-07T02:17:35.278Z,6.65
2023-05-07T02:20:20.551Z,6.32
2023-05-07T02:23:05.800Z,5.75
2023-05-07T02:25:51.945Z,6.82
2023-05-07T02:28:37.056Z,6.40
2023-05-07T02:31:22.578Z,6.95
2023-05-07T02:34:07.784Z,6.95
2023-05-07T02:36:53.117Z,5.72
2023-05-07T02:39:38.442Z,6.55
2023-05-07T02:42:23.882Z,5.93
2023-05-07T02:45:09.944Z,6.25
2023-05-07T02:47:55.156Z,5.97
2023-05-07T02:50:40.488Z,6.28
2023-05-07T02:53:30.296Z,6.15
2023-05-07T02:56:15.517Z,6.28
2023-05-07T02:59:00.759Z,6.30
2023-05-07T03:01:46.359Z,5.85
2023-05-07T03:04:32.225Z,6.68
2023-05-07T03:07:17.462Z,6.43
2023-05-07T03:10:03.296Z,7.05
2023-05-07T03:12:48.381Z,7.65
2023-05-07T03:15:33.741Z,8.45
2023-05-07T03:18:19.219Z,7.45
2023-05-07T03:21:04.612Z,6.80
2023-05-07T03:23:49.710Z,8.05
2023-05-07T03:26:35.013Z,8.23
2023-05-07T03:29:20.837Z,7.57
2023-05-07T03:32:06.886Z,7.85
2023-05-07T03:34:51.880Z,8.52
2023-05-07T03:37:37.340Z,7.68
2023-05-07T03:40:22.705Z,6.90
2023-05-07T03:43:08.221Z,6.63
2023-05-07T03:45:53.706Z,7.60
2023-05-07T03:48:39.078Z,9.07
2023-05-07T03:51:24.430Z,8.48
2023-05-07T03:54:09.834Z,7.05
2023-05-07T03:56:55.357Z,8.35
2023-05-07T03:59:40.955Z,8.98
2023-05-07T04:02:26.346Z,8.45
2023-05-07T04:05:11.720Z,7.45
2023-05-07T04:07:57.066Z,7.75
2023-05-07T04:10:42.411Z,7.32
2023-05-07T04:13:27.812Z,7.70
2023-05-07T04:16:13.251Z,7.78
2023-05-07T04:18:58.727Z,6.80
2023-05-07T04:21:44.306Z,8.52
2023-05-07T04:24:33.978Z,7.47
2023-05-07T04:27:19.202Z,8.18
2023-05-07T04:30:05.114Z,10.02
2023-05-07T04:32:50.399Z,9.13
2023-05-07T04:35:36.645Z,8.77
2023-05-07T04:38:21.895Z,10.25
2023-05-07T04:41:07.854Z,9.82
2023-05-07T04:43:52.873Z,9.95
2023-05-07T04:46:38.240Z,9.48
2023-05-07T04:49:23.582Z,8.88
2023-05-07T04:52:08.866Z,9.38
2023-05-07T04:54:54.210Z,9.43
2023-05-07T04:57:41.537Z,8.65
2023-05-07T05:00:27.214Z,9.07
2023-05-07T05:03:12.404Z,8.90
2023-05-07T05:06:00.345Z,9.18
2023-05-07T05:08:45.832Z,8.80
2023-05-07T05:11:31.628Z,8.88
2023-05-07T05:14:17.017Z,8.82
2023-05-07T05:17:02.401Z,8.48
2023-05-07T05:19:47.702Z,9.55
2023-05-07T05:22:33.930Z,9.85
2023-05-07T05:25:19.104Z,9.10
2023-05-07T05:28:04.636Z,9.02
2023-05-07T05:30:50.644Z,8.98
2023-05-07T05:33:36.095Z,9.48
2023-05-07T05:36:21.563Z,9.32
2023-05-07T05:39:06.958Z,9.00
2023-05-07T05:41:52.019Z,10.00
2023-05-07T05:44:37.728Z,9.82
2023-05-07T05:47:23.726Z,9.75
2023-05-07T05:50:09.432Z,10.02
2023-05-07T05:52:54.938Z,10.00
2023-05-07T05:55:40.357Z,9.75
2023-05-07T05:58:25.882Z,9.32
2023-05-07T06:01:12.433Z,10.90
2023-05-07T06:03:57.911Z,9.93
2023-05-07T06:06:43.253Z,8.82
2023-05-07T06:09:29.532Z,9.73
2023-05-07T06:12:15.054Z,9.75
2023-05-07T06:15:00.515Z,10.02
2023-05-07T06:17:45.926Z,8.35
2023-05-07T06:20:31.301Z,10.02
2023-05-07T06:23:18.121Z,8.82
2023-05-07T06:26:04.037Z,8.85
2023-05-07T06:28:49.468Z,8.48
2023-05-07T06:31:34.794Z,9.68
2023-05-07T06:34:20.933Z,9.50
2023-05-07T06:37:07.090Z,8.23
2023-05-07T06:39:52.581Z,8.90
2023-05-07T06:42:38.932Z,8.88
2023-05-07T06:45:26.249Z,8.75
2023-05-07T06:48:12.589Z,8.63
2023-05-07T06:50:59.111Z,8.63
2023-05-07T06:53:44.566Z,8.75
2023-05-07T06:56:30.103Z,8.15
2023-05-07T06:59:16.414Z,7.90
2023-05-07T07:02:02.047Z,9.07
2023-05-07T07:04:47.401Z,9.23
2023-05-07T07:07:32.649Z,8.38
2023-05-07T07:10:18.180Z,8.63
2023-05-07T07:13:03.570Z,8.68
2023-05-07T07:15:49.194Z,8.55
2023-05-07T07:18:34.438Z,7.10
2023-05-07T07:21:19.962Z,9.00
2023-05-07T07:24:05.821Z,9.95
2023-05-07T07:26:50.934Z,9.02
2023-05-07T07:29:36.487Z,8.90
2023-05-07T07:32:21.837Z,9.23
2023-05-07T07:35:07.858Z,9.23
2023-05-07T07:37:53.649Z,8.98
2023-05-07T07:40:38.807Z,9.75
2023-05-07T07:43:24.262Z,9.43
2023-05-07T07:46:09.623Z,8.98
2023-05-07T07:48:55.128Z,8.40
2023-05-07T07:51:41.100Z,9.18
2023-05-07T07:54:26.708Z,9.10
2023-05-07T07:57:12.567Z,8.85
2023-05-07T07:59:58.389Z,9.88
2023-05-07T08:02:43.777Z,9.75
2023-05-07T08:05:29.099Z,9.02
2023-05-07T08:08:14.492Z,10.07
2023-05-07T08:10:59.900Z,9.88
2023-05-07T08:13:46.371Z,10.63
2023-05-07T08:16:31.847Z,10.35
2023-05-07T08:19:17.287Z,10.43
2023-05-07T08:22:04.141Z,9.38
2023-05-07T08:24:49.249Z,10.15
2023-05-07T08:27:34.581Z,9.52
2023-05-07T08:30:20.368Z,9.90
2023-05-07T08:33:05.702Z,10.27
2023-05-07T08:35:51.059Z,10.40
2023-05-07T08:38:36.415Z,9.45
2023-05-07T08:41:21.942Z,9.75
2023-05-07T08:44:13.856Z,9.05
2023-05-07T08:47:00.727Z,10.38
2023-05-07T08:49:46.130Z,9.73
2023-05-07T08:52:31.525Z,9.57
2023-05-07T08:55:18.035Z,10.43
2023-05-07T08:58:03.349Z,9.95
2023-05-07T09:00:48.872Z,9.02
2023-05-07T09:03:34.759Z,8.43
2023-05-07T09:06:20.076Z,9.60
2023-05-07T09:09:06.460Z,9.00
2023-05-07T09:12:00.513Z,8.52
2023-05-07T09:14:47.097Z,8.45
2023-05-07T09:17:32.748Z,8.50
2023-05-07T09:20:18.187Z,8.35
2023-05-07T09:23:04.006Z,7.82
2023-05-07T09:25:49.393Z,8.82
2023-05-07T09:28:35.168Z,9.93
2023-05-07T09:31:21.543Z,7.30
2023-05-07T09:34:07.345Z,8.30
2023-05-07T09:36:52.748Z,8.25
2023-05-07T09:39:45.761Z,8.30
2023-05-07T09:42:31.066Z,7.35
2023-05-07T09:45:17.528Z,7.05
2023-05-07T09:48:06.695Z,8.25
2023-05-07T09:50:56.200Z,8.07
2023-05-07T09:53:42.763Z,7.60
2023-05-07T09:56:28.462Z,7.10
2023-05-07T09:59:17.744Z,6.05
2023-05-07T10:02:05.062Z,6.57
2023-05-07T10:04:51.432Z,5.82
2023-05-07T10:07:37.049Z,6.32
2023-05-07T10:10:22.720Z,6.28
2023-05-07T10:13:11.682Z,6.38
2023-05-07T10:15:58.043Z,6.55
2023-05-07T10:18:44.407Z,5.82
2023-05-07T10:21:31.171Z,5.95
2023-05-07T10:24:34.916Z,5.47
2023-05-07T10:27:20.876Z,3.85
2023-05-07T10:30:27.589Z,4.93
2023-05-07T10:33:16.147Z,4.53
2023-05-07T10:36:03.887Z,3.88
2023-05-07T10:38:49.302Z,4.00
2023-05-07T10:41:34.718Z,4.05
2023-05-07T10:44:30.358Z,9.25
2023-05-07T10:47:19.653Z,4.85
2023-05-07T10:50:05.099Z,4.97
2023-05-07T10:53:22.464Z,4.40
2023-05-07T10:56:19.918Z,3.80
2023-05-07T10:59:31.625Z,3.88
2023-05-07T11:02:17.215Z,3.90
2023-05-07T11:05:23.023Z,3.30
2023-05-07T11:08:09.269Z,3.47
2023-05-07T11:10:57.163Z,3.17
2023-05-07T11:13:50.503Z,2.88
2023-05-07T11:16:37.823Z,3.05
2023-05-07T11:20:09.387Z,2.67
2023-05-07T11:22:56.689Z,3.40
2023-05-07T11:25:42.681Z,3.75
2023-05-07T11:28:32.006Z,3.13
2023-05-07T11:31:23.430Z,2.55
2023-05-07T11:34:09.772Z,2.38
2023-05-07T11:36:56.812Z,2.92
2023-05-07T11:39:42.140Z,2.90
2023-05-07T11:42:32.780Z,3.22
2023-05-07T11:45:27.977Z,3.90
2023-05-07T11:48:17.354Z,3.55
2023-05-07T11:51:04.968Z,4.25
2023-05-07T11:53:51.114Z,3.55
2023-05-07T11:56:36.707Z,3.38
2023-05-07T11:59:21.810Z,3.45
2023-05-07T12:02:08.155Z,3.65
2023-05-07T12:04:54.298Z,3.83
2023-05-07T12:07:40.066Z,2.92
2023-05-07T12:10:25.910Z,3.33
2023-05-07T12:13:22.852Z,4.13
2023-05-07T12:16:08.621Z,3.63
2023-05-07T12:18:55.949Z,3.35
2023-05-07T12:21:41.801Z,3.60
2023-05-07T12:24:27.272Z,3.10
2023-05-07T12:27:12.801Z,3.22
2023-05-07T12:30:00.222Z,3.85
2023-05-07T12:32:46.736Z,3.45
2023-05-07T12:35:36.719Z,3.30
2023-05-07T12:38:22.344Z,2.90
2023-05-07T12:41:09.413Z,3.13
2023-05-07T12:43:58.587Z,3.13
2023-05-07T12:46:43.862Z,3.47
2023-05-07T12:49:29.281Z,3.17
2023-05-07T12:52:14.841Z,3.42
2023-05-07T12:55:09.748Z,2.53
2023-05-07T12:57:55.173Z,3.28
2023-05-07T13:00:40.636Z,3.50
2023-05-07T13:03:33.433Z,3.10
2023-05-07T13:06:18.946Z,3.33
2023-05-07T13:09:05.702Z,2.80
2023-05-07T13:11:50.928Z,3.10
2023-05-07T13:14:36.361Z,3.00
2023-05-07T13:17:21.635Z,2.78
2023-05-07T13:20:09.208Z,3.03
2023-05-07T13:22:54.570Z,3.65
2023-05-07T13:25:39.933Z,3.20
2023-05-07T13:28:26.089Z,2.88
2023-05-07T13:31:11.444Z,2.75
2023-05-07T13:33:57.278Z,3.53
2023-05-07T13:36:42.974Z,2.97
2023-05-07T13:39:28.546Z,2.63
2023-05-07T13:42:14.051Z,2.58
2023-05-07T13:44:59.365Z,2.30
2023-05-07T13:47:45.367Z,2.67
2023-05-07T13:50:31.147Z,2.92
2023-05-07T13:53:19.072Z,2.78
2023-05-07T13:56:05.642Z,3.53
2023-05-07T13:58:59.527Z,3.47
2023-05-07T14:01:46.194Z,3.38
2023-05-07T14:04:32.074Z,4.03
2023-05-07T14:07:17.303Z,3.25
2023-05-07T14:10:03.479Z,3.00
2023-05-07T14:12:48.951Z,3.28
2023-05-07T14:15:34.293Z,3.45
2023-05-07T14:18:19.549Z,3.35
2023-05-07T14:21:07.276Z,3.92
2023-05-07T14:23:52.420Z,3.72
2023-05-07T14:26:37.850Z,3.03
2023-05-07T14:29:24.342Z,3.67
2023-05-07T14:32:09.979Z,3.58
2023-05-07T14:34:55.134Z,3.88
2023-05-07T14:37:40.767Z,3.70
2023-05-07T14:40:26.102Z,3.70
2023-05-07T14:43:11.464Z,4.20
2023-05-07T14:45:56.833Z,4.25
2023-05-07T14:48:42.624Z,4.25
2023-05-07T14:51:29.394Z,4.03
2023-05-07T14:54:15.545Z,3.90
2023-05-07T14:57:01.098Z,3.60
2023-05-07T14:59:46.714Z,3.90
2023-05-07T15:02:31.915Z,4.15
2023-05-07T15:05:18.417Z,3.92
2023-05-07T15:08:03.975Z,3.92
2023-05-07T15:10:49.533Z,4.28
2023-05-07T15:13:35.121Z,4.55
2023-05-07T15:16:20.792Z,3.95
2023-05-07T15:19:06.119Z,4.13
2023-05-07T15:21:51.401Z,3.70
2023-05-07T15:24:37.445Z,3.80
2023-05-07T15:27:23.112Z,3.78
2023-05-07T15:30:11.167Z,4.13
2023-05-07T15:32:56.723Z,4.00
2023-05-07T15:35:42.201Z,3.60
2023-05-07T15:38:27.721Z,3.75
2023-05-07T15:41:13.170Z,3.70
2023-05-07T15:43:58.530Z,3.40
2023-05-07T15:46:44.192Z,4.18
2023-05-07T15:49:29.612Z,3.67
2023-05-07T15:52:15.912Z,3.60
2023-05-07T15:55:01.270Z,3.35
2023-05-07T15:57:46.251Z,3.88
2023-05-07T16:00:31.554Z,4.25
2023-05-07T16:03:18.908Z,4.10
2023-05-07T16:06:05.035Z,3.70
2023-05-07T16:08:50.543Z,3.45
2023-05-07T16:11:36.308Z,3.15
2023-05-07T16:14:22.076Z,3.65
2023-05-07T16:17:08.371Z,3.47
2023-05-07T16:19:53.802Z,3.13
2023-05-07T16:22:39.201Z,3.95
2023-05-07T16:25:24.578Z,3.63
2023-05-07T16:28:09.841Z,3.38
2023-05-07T16:30:55.678Z,3.55
2023-05-07T16:33:41.065Z,2.97
2023-05-07T16:36:29.893Z,3.92
2023-05-07T16:39:14.982Z,3.13
2023-05-07T16:42:00.583Z,3.90
2023-05-07T16:44:45.772Z,3.47
2023-05-07T16:47:31.530Z,3.22
2023-05-07T16:50:17.042Z,3.67
2023-05-07T16:53:02.440Z,3.45
2023-05-07T16:55:47.750Z,3.33
2023-05-07T16:58:35.930Z,3.58
2023-05-07T17:01:21.069Z,3.20
2023-05-07T17:04:06.553Z,3.47
2023-05-07T17:06:52.697Z,3.70
2023-05-07T17:09:37.885Z,3.53
2023-05-07T17:12:23.528Z,3.67
2023-05-07T17:15:10.488Z,3.70
2023-05-07T17:17:56.147Z,3.78
2023-05-07T17:20:41.892Z,3.60
2023-05-07T17:23:27.795Z,3.80
2023-05-07T17:26:17.121Z,3.65
2023-05-07T17:29:03.612Z,3.65
2023-05-07T17:31:49.248Z,4.15
2023-05-07T17:34:34.598Z,3.78
2023-05-07T17:37:21.595Z,4.05
2023-05-07T17:40:08.707Z,3.92
2023-05-07T17:42:55.674Z,4.68
2023-05-07T17:45:42.274Z,4.70
2023-05-07T17:48:27.562Z,4.07
2023-05-07T17:51:13.057Z,4.45
2023-05-07T17:53:58.657Z,3.92
2023-05-07T17:56:44.076Z,5.03
2023-05-07T17:59:29.546Z,5.20
2023-05-07T18:02:14.904Z,5.07
2023-05-07T18:05:00.391Z,5.32
2023-05-07T18:07:45.892Z,4.78
2023-05-07T18:10:31.257Z,6.38
2023-05-07T18:13:16.895Z,5.13
2023-05-07T18:16:01.999Z,4.25
2023-05-07T18:18:47.486Z,3.92
2023-05-07T18:21:32.769Z,4.18
2023-05-07T18:24:18.209Z,3.67
2023-05-07T18:27:03.896Z,3.88
2023-05-07T18:29:49.479Z,3.65
2023-05-07T18:32:35.165Z,3.97
2023-05-07T18:35:20.476Z,3.80
2023-05-07T18:38:05.945Z,3.97
2023-05-07T18:40:51.229Z,3.40
2023-05-07T18:43:36.655Z,4.22
2023-05-07T18:46:22.246Z,4.15
2023-05-07T18:49:07.593Z,3.65
2023-05-07T18:51:53.214Z,3.40
2023-05-07T18:54:40.120Z,3.30
2023-05-07T18:57:25.620Z,3.50
2023-05-07T19:00:12.220Z,3.13
2023-05-07T19:02:57.822Z,3.30
2023-05-07T19:05:44.083Z,3.45
2023-05-07T19:08:29.627Z,3.30
2023-05-07T19:11:15.323Z,3.00
2023-05-07T19:14:02.260Z,3.35
2023-05-07T19:16:49.421Z,3.15
2023-05-07T19:19:34.413Z,3.58
2023-05-07T19:22:20.603Z,3.15
2023-05-07T19:25:06.193Z,3.38
2023-05-07T19:27:51.622Z,3.25
2023-05-07T19:30:40.801Z,3.03
2023-05-07T19:33:26.030Z,3.45
2023-05-07T19:36:11.513Z,2.97
2023-05-07T19:38:57.088Z,3.28
2023-05-07T19:41:42.426Z,3.03
2023-05-07T19:44:27.835Z,3.10
2023-05-07T19:47:13.075Z,3.15
2023-05-07T19:49:58.511Z,2.97
2023-05-07T19:52:44.040Z,3.25
2023-05-07T19:55:29.460Z,3.05
2023-05-07T19:58:16.729Z,3.60
2023-05-07T20:01:03.016Z,3.33
2023-05-07T20:03:48.478Z,3.60
2023-05-07T20:06:34.048Z,3.47
2023-05-07T20:09:19.329Z,3.38
2023-05-07T20:12:05.095Z,3.08
2023-05-07T20:14:50.210Z,3.65
2023-05-07T20:17:35.663Z,3.55
2023-05-07T20:20:21.156Z,3.72
2023-05-07T20:23:06.436Z,3.80
2023-05-07T20:25:52.486Z,3.50
2023-05-07T20:28:37.623Z,4.05
2023-05-07T20:31:23.124Z,3.70
2023-05-07T20:34:08.667Z,3.47
2023-05-07T20:36:54.111Z,4.05
2023-05-07T20:39:39.872Z,3.90
2023-05-07T20:42:25.730Z,4.15
2023-05-07T20:45:11.390Z,4.60
2023-05-07T20:47:56.853Z,4.13
2023-05-07T20:50:42.127Z,3.92
2023-05-07T20:53:32.026Z,4.60
2023-05-07T20:56:17.430Z,4.05
2023-05-07T20:59:02.750Z,3.88
2023-05-07T21:01:48.285Z,3.65
2023-05-07T21:04:33.509Z,4.40
2023-05-07T21:07:18.857Z,3.75
2023-05-07T21:10:04.579Z,3.53
2023-05-07T21:12:49.954Z,3.58
2023-05-07T21:15:35.290Z,3.60
2023-05-07T21:18:20.780Z,4.05
2023-05-07T21:21:10.073Z,3.78
2023-05-07T21:23:55.554Z,4.00
2023-05-07T21:26:40.992Z,4.13
2023-05-07T21:29:26.932Z,4.00
2023-05-07T21:32:12.421Z,4.03
2023-05-07T21:35:00.015Z,4.15
2023-05-07T21:37:45.307Z,4.10
2023-05-07T21:40:30.948Z,4.10
2023-05-07T21:43:16.071Z,4.30
2023-05-07T21:46:03.733Z,4.07
2023-05-07T21:48:48.929Z,3.97
2023-05-07T21:51:34.666Z,3.88
2023-05-07T21:54:19.966Z,4.10
2023-05-07T21:57:05.318Z,3.63
2023-05-07T21:59:50.907Z,4.28
2023-05-07T22:02:36.415Z,4.32
2023-05-07T22:05:21.829Z,4.47
2023-05-07T22:08:07.215Z,4.43
2023-05-07T22:10:52.793Z,4.10
2023-05-07T22:13:38.034Z,4.47
2023-05-07T22:16:23.351Z,4.75
2023-05-07T22:19:08.760Z,3.70
2023-05-07T22:21:54.115Z,4.03
2023-05-07T22:24:40.624Z,4.55
2023-05-07T22:27:26.233Z,3.95
2023-05-07T22:30:11.963Z,4.00
2023-05-07T22:32:57.424Z,3.67
2023-05-07T22:35:42.766Z,4.53
2023-05-07T22:38:28.189Z,4.28
2023-05-07T22:41:13.745Z,4.03
2023-05-07T22:43:59.313Z,4.10
2023-05-07T22:46:44.745Z,3.75
2023-05-07T22:49:30.004Z,3.70
2023-05-07T22:52:15.771Z,3.88
2023-05-07T22:55:01.673Z,3.42
2023-05-07T22:57:47.123Z,4.00
2023-05-07T23:00:32.416Z,4.03
2023-05-07T23:03:17.969Z,3.90
2023-05-07T23:06:03.744Z,3.63
2023-05-07T23:08:49.076Z,3.95
2023-05-07T23:11:34.718Z,3.90
2023-05-07T23:14:20.849Z,3.40
2023-05-07T23:17:07.306Z,3.55
2023-05-07T23:19:52.722Z,4.07
2023-05-07T23:22:38.392Z,3.92
2023-05-07T23:25:23.459Z,4.13
2023-05-07T23:28:09.006Z,3.42
2023-05-07T23:30:54.324Z,4.30
2023-05-07T23:33:39.765Z,3.47
2023-05-07T23:36:25.303Z,3.88
2023-05-07T23:39:10.975Z,4.00
2023-05-07T23:41:56.117Z,3.63
2023-05-07T23:44:41.371Z,3.17
2023-05-07T23:47:26.798Z,3.28
2023-05-07T23:50:12.192Z,4.13
2023-05-07T23:52:57.744Z,3.80
2023-05-07T23:55:43.230Z,3.47
2023-05-07T23:58:28.450Z,3.20
